Time;durP1;ratioP1;P1;durP2;ratioP2;P2;SDS_P1;SDS_P2;PMS_P1;PMS_P2;Temp;Humidity;BMP_temperature;BMP_pressure;BME280_temperature;BME280_humidity;BME280_pressure;Samples;Min_cycle;Max_cycle;Signal;HPM_P1;HPM_P2
2022/11/19 00:01:10;;;;;;;;;;;4.50;82.30;;;;;;5038560;28;19924;-79
2022/11/19 00:03:36;;;;;;;;;;;4.30;82.40;;;;;;5053691;28;19913;-79
2022/11/19 00:06:05;;;;;;;;;;;4.30;82.10;;;;;;5061834;28;20026;-80
2022/11/19 00:08:31;;;;;;;;;;;4.30;82.00;;;;;;5049931;28;19916;-80
2022/11/19 00:11:02;;;;;;;;;;;4.30;82.30;;;;;;5040099;28;20376;-80
2022/11/19 00:13:27;;;;;;;;;;;4.20;82.20;;;;;;5067405;28;20430;-80
2022/11/19 00:15:53;;;;;;;;;;;4.30;82.10;;;;;;5065007;28;19967;-80
2022/11/19 00:18:18;;;;;;;;;;;4.20;81.90;;;;;;5036980;28;20392;-80
2022/11/19 00:20:43;;;;;;;;;;;4.10;82.00;;;;;;5053197;28;19913;-79
2022/11/19 00:23:09;;;;;;;;;;;4.10;81.80;;;;;;5070719;28;19912;-79
2022/11/19 00:25:34;;;;;;;;;;;3.90;82.50;;;;;;5054111;28;19920;-80
2022/11/19 00:28:00;;;;;;;;;;;3.90;82.70;;;;;;5054964;28;19913;-79
2022/11/19 00:30:25;;;;;;;;;;;3.80;82.50;;;;;;5058097;28;20372;-79
2022/11/19 00:32:51;;;;;;;;;;;3.70;83.00;;;;;;5060476;28;19917;-78
2022/11/19 00:35:16;;;;;;;;;;;3.90;82.60;;;;;;5040826;28;19913;-79
2022/11/19 00:37:42;;;;;;;;;;;3.80;82.60;;;;;;5071880;28;19909;-80
2022/11/19 00:40:10;;;;;;;;;;;3.80;82.80;;;;;;5037649;28;19912;-79
2022/11/19 00:42:36;;;;;;;;;;;3.80;82.60;;;;;;5056507;28;19909;-79
2022/11/19 00:45:02;;;;;;;;;;;3.80;82.70;;;;;;5050108;28;19988;-79
2022/11/19 00:47:27;;;;;;;;;;;3.80;82.70;;;;;;5053694;28;19913;-80
2022/11/19 00:49:53;;;;;;;;;;;3.70;82.70;;;;;;5039678;28;20008;-79
2022/11/19 00:52:18;;;;;;;;;;;3.70;82.60;;;;;;5053102;28;19970;-78
2022/11/19 00:54:43;;;;;;;;;;;3.80;83.10;;;;;;5039320;28;19931;-78
2022/11/19 00:57:09;;;;;;;;;;;3.70;82.90;;;;;;5035403;28;19956;-79
2022/11/19 00:59:34;;;;;;;;;;;3.60;82.90;;;;;;5063032;28;19920;-79
2022/11/19 01:02:00;;;;;;;;;;;3.60;83.20;;;;;;5052857;28;19909;-79
2022/11/19 01:04:25;;;;;;;;;;;3.50;83.40;;;;;;5044290;28;19919;-79
2022/11/19 01:06:51;;;;;;;;;;;3.50;83.20;;;;;;5049602;28;19917;-78
2022/11/19 01:09:16;;;;;;;;;;;3.50;83.20;;;;;;5062610;28;19919;-78
2022/11/19 01:11:42;;;;;;;;;;;3.50;83.60;;;;;;5071760;28;19919;-79
2022/11/19 01:14:07;;;;;;;;;;;3.50;83.70;;;;;;5063290;28;19963;-79
2022/11/19 01:16:34;;;;;;;;;;;3.60;83.40;;;;;;5043617;28;19909;-79
2022/11/19 01:18:59;;;;;;;;;;;3.60;82.80;;;;;;5043791;28;20000;-79
2022/11/19 01:21:26;;;;;;;;;;;3.50;83.10;;;;;;5044463;28;19986;-78
2022/11/19 01:23:51;;;;;;;;;;;3.60;83.30;;;;;;5058938;28;20315;-79
2022/11/19 01:26:17;;;;;;;;;;;3.60;82.20;;;;;;5058123;28;20516;-79
2022/11/19 01:28:43;;;;;;;;;;;3.50;82.30;;;;;;5080084;28;19959;-80
2022/11/19 01:31:10;;;;;;;;;;;3.40;82.10;;;;;;5047438;28;20295;-79
2022/11/19 01:33:36;;;;;;;;;;;3.50;82.70;;;;;;5037141;28;19921;-79
2022/11/19 01:36:04;;;;;;;;;;;3.50;82.50;;;;;;5054913;28;19912;-79
2022/11/19 01:38:29;;;;;;;;;;;3.40;82.40;;;;;;5049947;28;20053;-79
2022/11/19 01:40:55;;;;;;;;;;;3.30;82.70;;;;;;5036433;28;20465;-79
2022/11/19 01:43:39;;;;;;;;;;;3.30;82.90;;;;;;5055557;28;19912;-80
2022/11/19 01:46:05;;;;;;;;;;;3.20;83.30;;;;;;5065752;28;19912;-80
2022/11/19 01:48:32;;;;;;;;;;;3.30;82.80;;;;;;5040615;28;20417;-80
2022/11/19 01:51:00;;;;;;;;;;;3.30;82.50;;;;;;5072793;28;20261;-79
2022/11/19 01:53:30;;;;;;;;;;;3.30;82.30;;;;;;5056254;28;19916;-80
2022/11/19 01:56:02;;;;;;;;;;;3.40;82.50;;;;;;5036924;28;19947;-80
2022/11/19 01:58:29;;;;;;;;;;;3.30;81.90;;;;;;5050225;28;19915;-80
2022/11/19 02:00:54;;;;;;;;;;;3.50;81.70;;;;;;5038231;28;19920;-80
2022/11/19 02:03:20;;;;;;;;;;;3.30;82.20;;;;;;5046150;28;19912;-79
2022/11/19 02:05:46;;;;;;;;;;;3.10;82.30;;;;;;5040849;28;19917;-79
2022/11/19 02:08:30;;;;;;;;;;;3.00;83.00;;;;;;5054154;28;19921;-79
2022/11/19 02:11:14;;;;;;;;;;;2.90;83.30;;;;;;5037194;28;19955;-80
2022/11/19 02:13:42;;;;;;;;;;;3.00;83.50;;;;;;5064337;28;19921;-79
2022/11/19 02:16:13;;;;;;;;;;;2.90;83.50;;;;;;5041182;28;19917;-80
2022/11/19 02:18:38;;;;;;;;;;;3.00;83.40;;;;;;5057999;28;20030;-80
2022/11/19 02:21:30;;;;;;;;;;;3.10;83.00;;;;;;5039674;28;19963;-79
2022/11/19 02:24:02;;;;;;;;;;;3.10;82.50;;;;;;5063354;28;19939;-79
2022/11/19 02:26:28;;;;;;;;;;;2.90;83.20;;;;;;5036517;28;19924;-79
2022/11/19 02:29:11;;;;;;;;;;;2.80;83.80;;;;;;5056208;28;19912;-80
2022/11/19 02:31:40;;;;;;;;;;;2.90;84.00;;;;;;5051321;28;19923;-79
2022/11/19 02:34:15;;;;;;;;;;;2.80;83.70;;;;;;5036120;28;19921;-79
2022/11/19 02:36:47;;;;;;;;;;;2.80;83.80;;;;;;5069736;28;19913;-79
2022/11/19 02:39:34;;;;;;;;;;;2.80;83.60;;;;;;5063483;28;20005;-80
2022/11/19 02:42:08;;;;;;;;;;;2.80;83.90;;;;;;5052296;28;19917;-80
2022/11/19 02:47:21;;;;;;;;;;;2.80;83.70;;;;;;5054507;28;19924;-79
2022/11/19 02:49:48;;;;;;;;;;;2.80;83.70;;;;;;5051547;28;19962;-79
2022/11/19 02:52:15;;;;;;;;;;;2.80;84.00;;;;;;5058996;28;20394;-79
2022/11/19 02:54:40;;;;;;;;;;;2.80;83.80;;;;;;5038249;28;19917;-79
2022/11/19 02:57:08;;;;;;;;;;;2.70;83.80;;;;;;5057769;28;19912;-79
2022/11/19 03:05:10;;;;;;;;;;;2.70;84.30;;;;;;5054674;28;19967;-79
2022/11/19 03:07:36;;;;;;;;;;;2.70;84.30;;;;;;5068346;28;20515;-79
2022/11/19 03:10:04;;;;;;;;;;;2.70;84.30;;;;;;5061873;28;19913;-79
2022/11/19 03:12:35;;;;;;;;;;;2.60;84.50;;;;;;5057411;28;19920;-80
2022/11/19 03:18:05;;;;;;;;;;;2.60;85.30;;;;;;5056169;28;19928;-81
2022/11/19 03:20:37;;;;;;;;;;;2.70;85.10;;;;;;5048956;28;19919;-81
2022/11/19 03:23:08;;;;;;;;;;;2.80;84.40;;;;;;5057338;28;19909;-80
2022/11/19 03:25:37;;;;;;;;;;;2.80;83.90;;;;;;5043230;28;19913;-80
2022/11/19 03:28:05;;;;;;;;;;;2.80;83.60;;;;;;5043169;28;19909;-80
2022/11/19 03:30:31;;;;;;;;;;;2.60;84.00;;;;;;5066627;28;19912;-80
2022/11/19 03:33:01;;;;;;;;;;;2.50;84.40;;;;;;5046466;28;19926;-80
2022/11/19 03:35:33;;;;;;;;;;;2.50;84.40;;;;;;5055887;28;19958;-81
2022/11/19 03:38:03;;;;;;;;;;;2.50;84.70;;;;;;5063207;28;19919;-81
2022/11/19 03:40:30;;;;;;;;;;;2.60;84.60;;;;;;5067432;28;19920;-80
2022/11/19 03:42:56;;;;;;;;;;;2.60;84.70;;;;;;5045354;28;19930;-80
2022/11/19 03:45:24;;;;;;;;;;;2.60;84.00;;;;;;5050020;28;19967;-81
2022/11/19 03:47:50;;;;;;;;;;;2.60;84.70;;;;;;5053417;28;19943;-81
2022/11/19 03:50:20;;;;;;;;;;;2.80;84.00;;;;;;5050573;28;20361;-80
2022/11/19 03:52:45;;;;;;;;;;;2.80;83.50;;;;;;5054797;28;19968;-80
2022/11/19 03:55:11;;;;;;;;;;;2.70;83.30;;;;;;5060881;28;19995;-80
2022/11/19 03:57:36;;;;;;;;;;;2.60;83.30;;;;;;5038295;28;19961;-81
2022/11/19 04:00:03;;;;;;;;;;;2.50;83.70;;;;;;5036313;28;20319;-80
2022/11/19 04:02:29;;;;;;;;;;;2.50;83.90;;;;;;5038890;28;19909;-80
2022/11/19 04:04:54;;;;;;;;;;;2.50;83.70;;;;;;5036494;28;19923;-81
2022/11/19 04:07:21;;;;;;;;;;;2.50;83.50;;;;;;5034592;28;19916;-81
2022/11/19 04:09:46;;;;;;;;;;;2.50;83.70;;;;;;5037269;28;19920;-80
2022/11/19 04:12:16;;;;;;;;;;;2.50;83.10;;;;;;5073376;28;19912;-80
2022/11/19 04:14:41;;;;;;;;;;;2.40;83.20;;;;;;5067815;28;20005;-80
2022/11/19 04:17:07;;;;;;;;;;;2.30;83.70;;;;;;5054897;28;20031;-81
2022/11/19 04:19:32;;;;;;;;;;;2.40;83.10;;;;;;5037500;28;19922;-79
2022/11/19 04:21:57;;;;;;;;;;;2.30;83.10;;;;;;5060489;28;19912;-80
2022/11/19 04:24:23;;;;;;;;;;;2.40;83.10;;;;;;5070814;28;19919;-81
2022/11/19 04:26:48;;;;;;;;;;;2.30;83.00;;;;;;5056573;28;19952;-81
2022/11/19 04:29:14;;;;;;;;;;;2.40;83.00;;;;;;5064983;28;19912;-79
2022/11/19 04:31:39;;;;;;;;;;;2.40;82.90;;;;;;5053841;28;19952;-80
2022/11/19 04:34:05;;;;;;;;;;;2.30;82.40;;;;;;5057592;28;19924;-81
2022/11/19 04:36:31;;;;;;;;;;;2.40;82.40;;;;;;5059673;28;19916;-80
2022/11/19 04:38:56;;;;;;;;;;;2.40;82.20;;;;;;5068497;28;19950;-80
2022/11/19 04:41:22;;;;;;;;;;;2.30;82.40;;;;;;5059508;28;19936;-80
2022/11/19 04:43:47;;;;;;;;;;;2.30;82.40;;;;;;5055385;28;19970;-80
2022/11/19 04:46:12;;;;;;;;;;;2.30;82.20;;;;;;5064535;28;19912;-80
2022/11/19 04:48:38;;;;;;;;;;;2.20;82.50;;;;;;5071575;28;19908;-81
2022/11/19 04:51:03;;;;;;;;;;;2.20;82.40;;;;;;5061615;28;19917;-80
2022/11/19 04:53:29;;;;;;;;;;;2.20;82.80;;;;;;5041841;28;19921;-80
2022/11/19 04:55:54;;;;;;;;;;;2.20;83.10;;;;;;5033350;28;19920;-81
2022/11/19 04:58:20;;;;;;;;;;;2.30;82.50;;;;;;5054757;28;19956;-80
2022/11/19 05:00:46;;;;;;;;;;;2.30;82.20;;;;;;5051493;28;19913;-80
2022/11/19 05:03:11;;;;;;;;;;;2.20;82.80;;;;;;5046839;28;19968;-79
2022/11/19 05:05:37;;;;;;;;;;;2.20;83.10;;;;;;5046227;28;19951;-79
2022/11/19 05:08:02;;;;;;;;;;;2.10;83.30;;;;;;5034683;28;19913;-79
2022/11/19 05:10:28;;;;;;;;;;;2.20;83.20;;;;;;5038998;28;20334;-79
2022/11/19 05:12:53;;;;;;;;;;;2.10;83.00;;;;;;5055409;28;19920;-78
2022/11/19 05:15:19;;;;;;;;;;;2.00;83.30;;;;;;5059140;28;19909;-78
2022/11/19 05:17:44;;;;;;;;;;;2.00;83.40;;;;;;5039357;28;19912;-78
2022/11/19 05:20:10;;;;;;;;;;;1.80;83.50;;;;;;5039603;28;19940;-79
2022/11/19 05:22:35;;;;;;;;;;;1.80;84.00;;;;;;5063188;28;19919;-80
2022/11/19 05:25:01;;;;;;;;;;;1.90;83.90;;;;;;5075525;28;19913;-80
2022/11/19 05:27:26;;;;;;;;;;;1.80;83.50;;;;;;5056629;28;19909;-79
2022/11/19 05:29:52;;;;;;;;;;;1.80;83.80;;;;;;5066500;28;19967;-80
2022/11/19 05:32:17;;;;;;;;;;;1.80;84.20;;;;;;5075354;28;19921;-80
2022/11/19 05:34:43;;;;;;;;;;;1.80;84.00;;;;;;5049345;28;19913;-80
2022/11/19 05:37:08;;;;;;;;;;;2.00;83.70;;;;;;5059002;28;19919;-80
2022/11/19 05:39:34;;;;;;;;;;;1.90;83.40;;;;;;5058794;28;20320;-80
2022/11/19 05:41:59;;;;;;;;;;;1.80;83.50;;;;;;5055183;28;19984;-80
2022/11/19 05:44:25;;;;;;;;;;;1.80;83.60;;;;;;5040730;28;19921;-81
2022/11/19 05:46:50;;;;;;;;;;;1.70;83.60;;;;;;5039969;28;19963;-80
2022/11/19 05:49:16;;;;;;;;;;;1.80;83.70;;;;;;5055093;28;20000;-80
2022/11/19 05:51:41;;;;;;;;;;;1.80;83.20;;;;;;5048375;28;19923;-80
2022/11/19 05:54:06;;;;;;;;;;;1.80;83.30;;;;;;5054468;28;20373;-80
2022/11/19 05:56:32;;;;;;;;;;;1.80;83.40;;;;;;5066708;28;20427;-80
2022/11/19 05:59:00;;;;;;;;;;;1.60;83.50;;;;;;5038857;28;19940;-80
2022/11/19 06:01:26;;;;;;;;;;;1.60;83.90;;;;;;5039007;28;19921;-80
2022/11/19 06:03:51;;;;;;;;;;;1.60;83.10;;;;;;5055662;28;19916;-80
2022/11/19 06:06:17;;;;;;;;;;;1.60;83.50;;;;;;5051547;28;20328;-81
2022/11/19 06:08:42;;;;;;;;;;;1.60;83.90;;;;;;5064783;28;19948;-80
2022/11/19 06:11:46;;;;;;;;;;;1.60;82.80;;;;;;5071548;28;19973;-80
2022/11/19 06:13:53;;;;;;;;;;;1.60;82.70;;;;;;5055181;28;19927;-81
2022/11/19 06:16:19;;;;;;;;;;;1.60;83.00;;;;;;5064368;28;19913;-80
2022/11/19 06:18:44;;;;;;;;;;;1.60;82.70;;;;;;5055257;28;19912;-80
2022/11/19 06:21:09;;;;;;;;;;;1.70;83.00;;;;;;5056574;28;19913;-80
2022/11/19 06:23:35;;;;;;;;;;;1.80;82.30;;;;;;5038036;28;19951;-81
2022/11/19 06:26:00;;;;;;;;;;;1.80;82.10;;;;;;5061972;28;19917;-80
2022/11/19 06:28:26;;;;;;;;;;;1.70;82.10;;;;;;5036787;28;19913;-80
2022/11/19 06:30:51;;;;;;;;;;;1.70;82.30;;;;;;5061978;28;19912;-80
2022/11/19 06:33:17;;;;;;;;;;;1.70;81.60;;;;;;5056201;28;19917;-80
2022/11/19 06:35:42;;;;;;;;;;;1.70;82.00;;;;;;5050624;28;19931;-80
2022/11/19 06:38:07;;;;;;;;;;;1.70;81.30;;;;;;5069492;28;19919;-80
2022/11/19 06:40:33;;;;;;;;;;;1.70;81.20;;;;;;5048705;28;19920;-79
2022/11/19 06:42:58;;;;;;;;;;;1.60;81.00;;;;;;5057700;28;19913;-80
2022/11/19 06:45:24;;;;;;;;;;;1.50;81.20;;;;;;5039354;28;20047;-80
2022/11/19 06:47:49;;;;;;;;;;;1.50;81.50;;;;;;5056915;28;20403;-80
2022/11/19 06:50:15;;;;;;;;;;;1.50;81.90;;;;;;5048888;28;19982;-80
2022/11/19 06:52:40;;;;;;;;;;;1.60;82.30;;;;;;5053284;28;19924;-80
2022/11/19 06:55:06;;;;;;;;;;;1.60;81.20;;;;;;5054459;28;19912;-79
2022/11/19 06:57:31;;;;;;;;;;;1.60;81.20;;;;;;5028050;28;19928;-80
2022/11/19 06:59:57;;;;;;;;;;;1.60;81.70;;;;;;5052120;28;19913;-81
2022/11/19 07:02:22;;;;;;;;;;;1.50;81.10;;;;;;5066018;28;20012;-80
2022/11/19 07:04:48;;;;;;;;;;;1.40;81.70;;;;;;5043854;28;19940;-80
2022/11/19 07:07:13;;;;;;;;;;;1.50;82.00;;;;;;5037807;28;19919;-80
2022/11/19 07:09:39;;;;;;;;;;;1.60;82.00;;;;;;5058408;28;19962;-83
2022/11/19 07:12:05;;;;;;;;;;;1.70;81.50;;;;;;5029840;28;20455;-82
2022/11/19 07:14:31;;;;;;;;;;;1.60;80.70;;;;;;5041171;28;19912;-81
2022/11/19 07:16:56;;;;;;;;;;;1.60;81.30;;;;;;5043987;28;19995;-79
2022/11/19 07:19:22;;;;;;;;;;;1.50;81.00;;;;;;5055151;28;19913;-78
2022/11/19 07:21:47;;;;;;;;;;;1.50;80.90;;;;;;5073480;28;19912;-79
2022/11/19 07:24:14;;;;;;;;;;;1.50;81.50;;;;;;5056735;28;19909;-78
2022/11/19 07:26:39;;;;;;;;;;;1.50;81.50;;;;;;5056149;28;19960;-80
2022/11/19 07:29:06;;;;;;;;;;;1.50;81.10;;;;;;5050755;28;19928;-79
2022/11/19 07:31:32;;;;;;;;;;;1.50;81.20;;;;;;5053439;28;19909;-78
2022/11/19 07:33:57;;;;;;;;;;;1.50;81.10;;;;;;5050840;28;19923;-78
2022/11/19 07:36:23;;;;;;;;;;;1.50;81.10;;;;;;5072425;28;19908;-79
2022/11/19 07:38:51;;;;;;;;;;;1.50;81.50;;;;;;5072461;28;19912;-79
2022/11/19 07:44:01;;;;;;;;;;;1.50;81.10;;;;;;5073344;28;19964;-80
2022/11/19 07:46:26;;;;;;;;;;;1.50;80.90;;;;;;5049641;28;19909;-79
2022/11/19 07:48:53;;;;;;;;;;;1.50;80.70;;;;;;5047186;28;19916;-79
2022/11/19 07:51:18;;;;;;;;;;;1.60;80.40;;;;;;5073440;28;19916;-81
2022/11/19 07:53:44;;;;;;;;;;;1.60;80.20;;;;;;5055309;28;20383;-79
2022/11/19 07:56:09;;;;;;;;;;;1.60;79.90;;;;;;5054986;28;19917;-79
2022/11/19 07:58:35;;;;;;;;;;;1.50;79.30;;;;;;5073631;28;19908;-79
2022/11/19 08:01:27;;;;;;;;;;;1.40;79.90;;;;;;5057096;28;19964;-80
2022/11/19 08:03:52;;;;;;;;;;;1.50;79.80;;;;;;5016630;28;19939;-80
2022/11/19 08:06:18;;;;;;;;;;;1.60;79.60;;;;;;5025786;28;19917;-81
2022/11/19 08:08:44;;;;;;;;;;;1.50;78.70;;;;;;5044747;28;19913;-78
2022/11/19 08:11:11;;;;;;;;;;;1.40;78.90;;;;;;5052573;28;19920;-79
2022/11/19 08:13:36;;;;;;;;;;;1.50;78.90;;;;;;5045088;28;19913;-77
2022/11/19 08:16:03;;;;;;;;;;;1.50;78.00;;;;;;5032615;28;20432;-79
2022/11/19 08:18:28;;;;;;;;;;;1.40;78.30;;;;;;5035534;28;19924;-79
2022/11/19 08:20:54;;;;;;;;;;;1.40;78.60;;;;;;5067746;28;20110;-79
2022/11/19 08:23:20;;;;;;;;;;;1.40;78.80;;;;;;5056586;28;19913;-79
2022/11/19 08:25:45;;;;;;;;;;;1.50;78.90;;;;;;5052798;28;19908;-79
2022/11/19 08:28:11;;;;;;;;;;;1.50;78.10;;;;;;5054033;28;20340;-79
2022/11/19 08:30:39;;;;;;;;;;;1.50;76.70;;;;;;5035240;28;20387;-80
2022/11/19 08:33:05;;;;;;;;;;;1.50;76.60;;;;;;5035008;28;19924;-79
2022/11/19 08:35:31;;;;;;;;;;;1.50;77.10;;;;;;5034964;28;19913;-80
2022/11/19 08:37:57;;;;;;;;;;;1.50;77.00;;;;;;5068512;28;19920;-80
2022/11/19 08:40:23;;;;;;;;;;;1.20;77.00;;;;;;5054994;28;19917;-79
2022/11/19 08:43:00;;;;;;;;;;;1.20;77.70;;;;;;5052393;28;19908;-78
2022/11/19 08:45:33;;;;;;;;;;;1.10;77.40;;;;;;5053360;28;19909;-80
2022/11/19 08:48:00;;;;;;;;;;;1.00;78.10;;;;;;5039040;28;19968;-79
2022/11/19 08:50:26;;;;;;;;;;;1.10;77.60;;;;;;5056308;23;20011;-83
2022/11/19 08:52:54;;;;;;;;;;;1.10;77.80;;;;;;5050384;28;20507;-84
2022/11/19 08:55:20;;;;;;;;;;;1.10;77.40;;;;;;5055260;28;19913;-83
2022/11/19 08:57:45;;;;;;;;;;;1.20;77.40;;;;;;5056016;28;19958;-84
2022/11/19 09:00:11;;;;;;;;;;;1.20;77.80;;;;;;5045338;28;20290;-84
2022/11/19 09:02:36;;;;;;;;;;;1.30;77.40;;;;;;5027668;28;20458;-84
2022/11/19 09:05:02;;;;;;;;;;;1.40;76.40;;;;;;5031507;28;19985;-85
2022/11/19 09:07:27;;;;;;;;;;;1.30;77.00;;;;;;5054274;28;20055;-84
2022/11/19 09:09:52;;;;;;;;;;;1.30;77.20;;;;;;5037960;28;19913;-84
2022/11/19 09:12:18;;;;;;;;;;;1.30;76.50;;;;;;5033798;28;19917;-84
2022/11/19 09:14:43;;;;;;;;;;;1.20;76.70;;;;;;5029603;28;19920;-86
2022/11/19 09:17:09;;;;;;;;;;;1.10;77.40;;;;;;5041500;28;19943;-84
2022/11/19 09:19:34;;;;;;;;;;;1.20;76.50;;;;;;5050292;28;19918;-85
2022/11/19 09:21:59;;;;;;;;;;;1.20;76.80;;;;;;5040285;28;20034;-83
2022/11/19 09:24:25;;;;;;;;;;;1.30;76.20;;;;;;5027918;28;19956;-83
2022/11/19 09:26:50;;;;;;;;;;;1.20;76.60;;;;;;5035257;28;19916;-83
2022/11/19 09:29:16;;;;;;;;;;;1.20;76.70;;;;;;5025167;28;19996;-83
2022/11/19 09:31:41;;;;;;;;;;;1.20;76.30;;;;;;5033997;28;19909;-84
2022/11/19 09:34:07;;;;;;;;;;;1.20;75.80;;;;;;5036993;28;19928;-83
2022/11/19 09:36:32;;;;;;;;;;;1.20;76.30;;;;;;5037195;28;19909;-83
2022/11/19 09:38:58;;;;;;;;;;;1.10;76.30;;;;;;5026673;28;19919;-83
2022/11/19 09:41:23;;;;;;;;;;;1.20;77.10;;;;;;5017450;28;20001;-84
2022/11/19 09:43:54;;;;;;;;;;;1.20;76.60;;;;;;5023200;28;19913;-84
2022/11/19 09:46:22;;;;;;;;;;;1.10;76.30;;;;;;5027806;28;19955;-82
2022/11/19 09:48:49;;;;;;;;;;;1.10;76.30;;;;;;5057183;28;19967;-84
2022/11/19 09:51:17;;;;;;;;;;;1.00;76.30;;;;;;5024109;28;19921;-84
2022/11/19 09:53:51;;;;;;;;;;;1.00;76.20;;;;;;5026385;28;19917;-83
2022/11/19 09:56:28;;;;;;;;;;;1.00;75.90;;;;;;5037510;28;19909;-83
2022/11/19 09:58:54;;;;;;;;;;;0.90;75.90;;;;;;5047454;28;19920;-85
2022/11/19 10:01:20;;;;;;;;;;;0.80;76.50;;;;;;5029925;28;19913;-84
2022/11/19 10:03:50;;;;;;;;;;;0.80;77.00;;;;;;5028561;28;19920;-83
2022/11/19 10:06:33;;;;;;;;;;;0.80;76.90;;;;;;5050269;28;19918;-82
2022/11/19 10:09:04;;;;;;;;;;;0.80;77.00;;;;;;5029755;28;20067;-83
2022/11/19 10:11:40;;;;;;;;;;;0.80;76.90;;;;;;5032843;28;19913;-82
2022/11/19 10:14:16;;;;;;;;;;;0.70;76.60;;;;;;5027976;28;19921;-84
2022/11/19 10:17:08;;;;;;;;;;;0.80;76.50;;;;;;5024119;28;19914;-82
2022/11/19 10:19:42;;;;;;;;;;;0.80;76.70;;;;;;4998031;28;20150;-82
2022/11/19 10:22:11;;;;;;;;;;;0.80;76.40;;;;;;5022913;28;19921;-83
2022/11/19 10:24:36;;;;;;;;;;;0.80;77.10;;;;;;5044740;28;20319;-83
2022/11/19 10:27:09;;;;;;;;;;;1.00;76.80;;;;;;5018708;28;19909;-82
2022/11/19 10:29:36;;;;;;;;;;;1.10;76.50;;;;;;5027761;28;20278;-81
2022/11/19 10:32:15;;;;;;;;;;;1.20;75.80;;;;;;5025222;28;19920;-82
2022/11/19 10:34:41;;;;;;;;;;;1.30;75.40;;;;;;5044805;28;19931;-81
2022/11/19 10:37:17;;;;;;;;;;;1.30;75.40;;;;;;5017603;28;20486;-82
2022/11/19 10:39:45;;;;;;;;;;;1.30;75.10;;;;;;5026175;28;19916;-82
2022/11/19 10:42:22;;;;;;;;;;;1.20;75.20;;;;;;5025867;28;19959;-81
2022/11/19 10:44:56;;;;;;;;;;;1.30;75.90;;;;;;5032242;28;19921;-81
2022/11/19 10:47:27;;;;;;;;;;;1.30;74.60;;;;;;5028063;28;20286;-80
2022/11/19 10:49:53;;;;;;;;;;;1.30;74.80;;;;;;5019298;28;19914;-80
2022/11/19 10:52:36;;;;;;;;;;;1.30;74.90;;;;;;5024624;28;19921;-83
2022/11/19 10:55:11;;;;;;;;;;;1.30;75.20;;;;;;5031185;28;19913;-81
2022/11/19 10:57:36;;;;;;;;;;;1.50;75.30;;;;;;5038731;28;19921;-82
2022/11/19 11:00:02;;;;;;;;;;;1.60;74.80;;;;;;5041431;28;20012;-82
2022/11/19 11:02:30;;;;;;;;;;;1.60;75.10;;;;;;5031037;28;20299;-84
2022/11/19 11:05:03;;;;;;;;;;;1.70;74.80;;;;;;5031073;28;19920;-83
2022/11/19 11:07:43;;;;;;;;;;;1.70;74.30;;;;;;5030986;28;20348;-82
2022/11/19 11:10:28;;;;;;;;;;;1.70;74.20;;;;;;5027085;28;19971;-84
2022/11/19 11:15:44;;;;;;;;;;;1.80;73.90;;;;;;5028133;28;19920;-82
2022/11/19 11:18:10;;;;;;;;;;;1.80;73.40;;;;;;5020611;28;19918;-82
2022/11/19 11:20:37;;;;;;;;;;;1.80;73.70;;;;;;5032436;28;19917;-81
2022/11/19 11:23:08;;;;;;;;;;;1.90;74.10;;;;;;5034816;28;19983;-81
2022/11/19 11:25:34;;;;;;;;;;;2.00;74.40;;;;;;5025094;28;19917;-82
2022/11/19 11:28:09;;;;;;;;;;;1.90;74.00;;;;;;5039050;28;19914;-81
2022/11/19 11:30:34;;;;;;;;;;;2.00;73.90;;;;;;5035861;28;20341;-82
2022/11/19 11:33:18;;;;;;;;;;;2.00;73.70;;;;;;5025726;28;19918;-82
2022/11/19 11:35:44;;;;;;;;;;;2.10;73.20;;;;;;5017729;28;19923;-82
2022/11/19 11:38:09;;;;;;;;;;;2.20;72.80;;;;;;5027702;28;20282;-82
2022/11/19 11:40:35;;;;;;;;;;;2.30;71.90;;;;;;5033823;28;19913;-81
2022/11/19 11:43:01;;;;;;;;;;;2.40;70.30;;;;;;5021901;28;19914;-82
2022/11/19 11:45:31;;;;;;;;;;;2.40;71.00;;;;;;5027013;28;19917;-82
2022/11/19 11:47:57;;;;;;;;;;;2.40;70.70;;;;;;5026670;28;19936;-83
2022/11/19 11:50:24;;;;;;;;;;;2.40;71.00;;;;;;5024471;28;19952;-83
2022/11/19 11:52:50;;;;;;;;;;;2.40;71.00;;;;;;5023409;28;19913;-81
2022/11/19 11:55:22;;;;;;;;;;;2.30;72.00;;;;;;5025252;28;19997;-82
2022/11/19 11:57:58;;;;;;;;;;;2.30;71.80;;;;;;5025393;28;19924;-81
2022/11/19 12:00:26;;;;;;;;;;;2.30;72.30;;;;;;5050302;28;20007;-82
2022/11/19 12:02:59;;;;;;;;;;;2.50;71.60;;;;;;5038493;28;19917;-83
2022/11/19 12:05:24;;;;;;;;;;;2.50;70.80;;;;;;5027925;28;19967;-83
2022/11/19 12:07:53;;;;;;;;;;;2.40;70.80;;;;;;5023577;28;19909;-82
2022/11/19 12:10:27;;;;;;;;;;;2.40;71.60;;;;;;5014871;28;19925;-82
2022/11/19 12:13:11;;;;;;;;;;;2.40;71.70;;;;;;5021827;28;19928;-81
2022/11/19 12:15:55;;;;;;;;;;;2.40;71.80;;;;;;5013254;28;20359;-82
2022/11/19 12:18:20;;;;;;;;;;;2.30;70.90;;;;;;5014876;28;19936;-82
2022/11/19 12:20:52;;;;;;;;;;;2.30;71.20;;;;;;5022790;28;19948;-81
2022/11/19 12:23:36;;;;;;;;;;;2.40;71.70;;;;;;5025434;28;19948;-81
2022/11/19 12:26:11;;;;;;;;;;;2.80;69.60;;;;;;5025569;28;19954;-82
2022/11/19 12:28:44;;;;;;;;;;;2.80;68.90;;;;;;5051299;28;19924;-81
2022/11/19 12:31:13;;;;;;;;;;;2.90;68.20;;;;;;5038260;28;19916;-83
2022/11/19 12:33:44;;;;;;;;;;;3.00;67.30;;;;;;5038826;28;19975;-82
2022/11/19 12:36:22;;;;;;;;;;;2.70;68.60;;;;;;5036600;28;20377;-82
2022/11/19 12:38:53;;;;;;;;;;;2.60;69.40;;;;;;5035469;28;20359;-82
2022/11/19 12:41:30;;;;;;;;;;;2.60;70.10;;;;;;5032707;28;19975;-82
2022/11/19 12:43:55;;;;;;;;;;;2.60;70.40;;;;;;5033961;28;19924;-82
2022/11/19 12:46:23;;;;;;;;;;;2.50;70.70;;;;;;5025952;28;19956;-83
2022/11/19 12:49:01;;;;;;;;;;;2.50;70.50;;;;;;5028903;28;19932;-83
2022/11/19 12:51:32;;;;;;;;;;;2.70;69.40;;;;;;5034278;28;19917;-82
2022/11/19 12:54:00;;;;;;;;;;;2.70;68.80;;;;;;5027799;28;19917;-82
2022/11/19 12:56:42;;;;;;;;;;;2.50;69.50;;;;;;5042736;28;19909;-83
2022/11/19 12:59:43;;;;;;;;;;;2.40;69.70;;;;;;5034367;28;20017;-80
2022/11/19 13:02:21;;;;;;;;;;;2.30;70.40;;;;;;5009858;28;19957;-81
2022/11/19 13:04:51;;;;;;;;;;;2.40;70.70;;;;;;5033188;28;19921;-82
2022/11/19 13:07:23;;;;;;;;;;;2.50;70.10;;;;;;5031583;28;19992;-83
2022/11/19 13:10:04;;;;;;;;;;;2.60;70.40;;;;;;5041980;28;20364;-82
2022/11/19 13:12:35;;;;;;;;;;;2.50;69.30;;;;;;5015874;28;19914;-80
2022/11/19 13:15:08;;;;;;;;;;;2.40;70.20;;;;;;5017176;28;19909;-82
2022/11/19 13:17:36;;;;;;;;;;;2.50;70.40;;;;;;5016514;28;19910;-81
2022/11/19 13:20:03;;;;;;;;;;;2.50;70.00;;;;;;5025195;28;19909;-82
2022/11/19 13:22:36;;;;;;;;;;;2.50;69.80;;;;;;5037336;28;19918;-83
2022/11/19 13:25:14;;;;;;;;;;;2.50;70.10;;;;;;5025139;28;20336;-81
2022/11/19 13:27:40;;;;;;;;;;;2.60;69.20;;;;;;5016885;28;19917;-81
2022/11/19 13:30:12;;;;;;;;;;;2.50;70.10;;;;;;5015326;28;19914;-81
2022/11/19 13:32:56;;;;;;;;;;;2.40;69.50;;;;;;5023213;28;19921;-82
2022/11/19 13:35:23;;;;;;;;;;;2.30;70.00;;;;;;5029364;28;19909;-82
2022/11/19 13:37:52;;;;;;;;;;;2.30;69.90;;;;;;5037068;28;20267;-82
2022/11/19 13:40:31;;;;;;;;;;;2.20;70.00;;;;;;5030396;28;19919;-83
2022/11/19 13:45:41;;;;;;;;;;;2.20;70.00;;;;;;5038215;28;20016;-82
2022/11/19 13:48:19;;;;;;;;;;;2.10;70.30;;;;;;5037559;28;19960;-81
2022/11/19 13:50:46;;;;;;;;;;;2.20;70.90;;;;;;5036937;28;19944;-82
2022/11/19 13:53:14;;;;;;;;;;;2.20;70.40;;;;;;5040872;28;19913;-83
2022/11/19 13:55:40;;;;;;;;;;;2.30;70.10;;;;;;5041239;28;19960;-81
2022/11/19 13:58:12;;;;;;;;;;;2.30;70.60;;;;;;5038250;28;19913;-84
2022/11/19 14:00:38;;;;;;;;;;;2.40;70.50;;;;;;5032771;28;19917;-81
2022/11/19 14:03:22;;;;;;;;;;;2.40;69.40;;;;;;5024861;28;19920;-81
2022/11/19 14:05:54;;;;;;;;;;;2.30;68.60;;;;;;5019342;28;19909;-80
2022/11/19 14:08:38;;;;;;;;;;;2.20;68.70;;;;;;5027508;28;20343;-80
2022/11/19 14:11:12;;;;;;;;;;;2.20;68.70;;;;;;5015033;28;19909;-80
2022/11/19 14:13:44;;;;;;;;;;;2.10;69.20;;;;;;5017183;28;19917;-81
2022/11/19 14:27:25;;;;;;;;;;;2.30;68.90;;;;;;5028588;28;19917;-81
2022/11/19 14:29:52;;;;;;;;;;;2.30;68.30;;;;;;5022587;28;19917;-82
2022/11/19 14:32:26;;;;;;;;;;;2.20;67.90;;;;;;5019952;28;19913;-81
2022/11/19 14:35:01;;;;;;;;;;;2.20;68.30;;;;;;5036472;28;19920;-82
2022/11/19 14:37:29;;;;;;;;;;;2.20;68.30;;;;;;5031606;28;20322;-83
2022/11/19 14:39:57;;;;;;;;;;;2.20;69.00;;;;;;5038474;28;19909;-82
2022/11/19 14:42:23;;;;;;;;;;;2.20;69.80;;;;;;5038452;28;19909;-82
2022/11/19 14:45:01;;;;;;;;;;;2.10;69.70;;;;;;5036525;28;19932;-82
2022/11/19 14:47:32;;;;;;;;;;;2.10;69.70;;;;;;5036403;28;19915;-82
2022/11/19 14:49:58;;;;;;;;;;;2.10;70.20;;;;;;5028095;28;19996;-82
2022/11/19 14:52:31;;;;;;;;;;;2.10;70.10;;;;;;4694541;22;19924;-84
2022/11/19 14:55:15;;;;;;;;;;;2.10;69.30;;;;;;5098824;28;19916;-84
2022/11/19 14:57:41;;;;;;;;;;;2.00;69.00;;;;;;5080277;28;19912;-82
2022/11/19 15:00:06;;;;;;;;;;;2.10;68.90;;;;;;5081377;28;19953;-83
2022/11/19 15:02:35;;;;;;;;;;;2.10;68.40;;;;;;5093838;28;19912;-83
2022/11/19 15:05:06;;;;;;;;;;;2.10;68.80;;;;;;5076541;28;19908;-83
2022/11/19 15:07:31;;;;;;;;;;;2.10;68.60;;;;;;5063588;28;20269;-84
2022/11/19 15:10:03;;;;;;;;;;;1.90;68.40;;;;;;5062405;28;19908;-84